createdAt,value
2023-05-14T00:02:11.209Z,8.95
2023-05-14T00:05:23.434Z,8.90
2023-05-14T00:08:35.984Z,8.84
2023-05-14T00:11:48.199Z,8.77
2023-05-14T00:15:00.366Z,8.83
2023-05-14T00:18:12.772Z,8.76
2023-05-14T00:21:25.086Z,8.73
2023-05-14T00:24:37.260Z,8.70
2023-05-14T00:27:49.374Z,8.69
2023-05-14T00:31:01.648Z,8.60
2023-05-14T00:34:13.921Z,8.54
2023-05-14T00:37:25.997Z,8.59
2023-05-14T00:40:38.368Z,8.54
2023-05-14T00:43:50.384Z,8.34
2023-05-14T00:47:02.606Z,8.27
2023-05-14T00:50:17.329Z,8.25
2023-05-14T00:53:29.979Z,8.32
2023-05-14T00:56:42.771Z,8.32
2023-05-14T00:59:55.100Z,8.28
2023-05-14T01:03:08.074Z,8.29
2023-05-14T01:06:26.082Z,8.11
2023-05-14T01:09:46.780Z,8.04
2023-05-14T01:13:07.059Z,8.00
2023-05-14T01:16:23.740Z,7.87
2023-05-14T01:19:42.449Z,7.81
2023-05-14T01:22:54.599Z,7.76
2023-05-14T01:26:06.928Z,7.90
2023-05-14T01:29:26.375Z,7.94
2023-05-14T01:32:39.906Z,7.85
2023-05-14T01:35:53.946Z,7.79
2023-05-14T01:39:09.502Z,7.65
2023-05-14T01:42:22.116Z,7.58
2023-05-14T01:45:34.664Z,7.66
2023-05-14T01:48:46.831Z,7.74
2023-05-14T01:51:58.983Z,7.76
2023-05-14T01:55:13.408Z,7.57
2023-05-14T01:58:25.807Z,7.49
2023-05-14T02:01:38.542Z,7.42
2023-05-14T02:04:50.879Z,7.44
2023-05-14T02:08:03.053Z,7.42
2023-05-14T02:11:15.240Z,7.40
2023-05-14T02:14:27.344Z,7.35
2023-05-14T02:17:39.344Z,7.34
2023-05-14T02:20:52.383Z,7.34
2023-05-14T02:24:04.730Z,7.28
2023-05-14T02:27:17.162Z,7.29
2023-05-14T02:30:30.410Z,7.38
2023-05-14T02:33:42.672Z,7.29
2023-05-14T02:36:56.516Z,7.26
2023-05-14T02:40:09.421Z,7.25
2023-05-14T02:43:21.597Z,7.29
2023-05-14T02:46:34.853Z,7.21
2023-05-14T02:49:47.228Z,7.14
2023-05-14T02:52:59.303Z,7.14
2023-05-14T02:56:12.370Z,7.12
2023-05-14T02:59:24.418Z,7.10
2023-05-14T03:02:37.292Z,7.00
2023-05-14T03:05:50.011Z,6.92
2023-05-14T03:09:01.973Z,7.08
2023-05-14T03:12:15.709Z,7.05
2023-05-14T03:15:27.959Z,7.00
2023-05-14T03:18:40.948Z,6.95
2023-05-14T03:21:54.553Z,6.95
2023-05-14T03:25:06.525Z,6.96
2023-05-14T03:28:18.672Z,6.95
2023-05-14T03:31:31.749Z,7.00
2023-05-14T03:34:44.910Z,7.01
2023-05-14T03:37:59.370Z,7.08
2023-05-14T03:41:12.024Z,7.22
2023-05-14T03:44:24.247Z,7.27
2023-05-14T03:47:36.222Z,7.34
2023-05-14T03:50:48.480Z,7.39
2023-05-14T03:54:00.611Z,7.37
2023-05-14T03:57:13.303Z,7.44
2023-05-14T04:00:27.312Z,7.45
2023-05-14T04:03:40.214Z,7.44
2023-05-14T04:06:53.305Z,7.44
2023-05-14T04:10:06.551Z,7.54
2023-05-14T04:13:20.493Z,7.51
2023-05-14T04:16:32.705Z,7.59
2023-05-14T04:19:45.000Z,7.54
2023-05-14T04:22:57.163Z,7.58
2023-05-14T04:26:09.581Z,7.55
2023-05-14T04:29:21.675Z,7.64
2023-05-14T04:32:33.828Z,7.75
2023-05-14T04:35:46.233Z,7.93
2023-05-14T04:38:58.343Z,8.01
2023-05-14T04:42:11.502Z,8.04
2023-05-14T04:45:24.098Z,8.15
2023-05-14T04:48:36.198Z,8.26
2023-05-14T04:51:48.350Z,8.32
2023-05-14T04:55:00.632Z,8.39
2023-05-14T04:58:12.798Z,8.46
2023-05-14T05:01:24.954Z,8.51
2023-05-14T05:04:37.299Z,8.61
2023-05-14T05:07:49.344Z,8.75
2023-05-14T05:11:01.484Z,8.83
2023-05-14T05:14:13.572Z,8.93
2023-05-14T05:17:25.818Z,9.06
2023-05-14T05:20:37.933Z,9.10
2023-05-14T05:23:50.066Z,9.27
2023-05-14T05:27:02.043Z,9.48
2023-05-14T05:30:17.470Z,9.54
2023-05-14T05:33:29.897Z,9.86
2023-05-14T05:36:42.067Z,10.54
2023-05-14T05:39:54.218Z,10.69
2023-05-14T05:43:06.298Z,10.80
2023-05-14T05:46:18.461Z,10.71
2023-05-14T05:52:31.055Z,11.18
2023-05-14T05:55:43.370Z,11.37
2023-05-14T05:58:55.472Z,11.62
2023-05-14T06:02:07.633Z,11.91
2023-05-14T06:05:20.076Z,12.24
2023-05-14T06:08:32.164Z,12.34
2023-05-14T06:11:44.291Z,12.62
2023-05-14T06:14:58.013Z,12.78
2023-05-14T06:18:10.439Z,12.97
2023-05-14T06:21:23.119Z,13.13
2023-05-14T06:24:35.267Z,13.38
2023-05-14T06:27:47.356Z,13.37
2023-05-14T06:30:59.578Z,13.73
2023-05-14T06:34:11.713Z,13.98
2023-05-14T06:37:23.837Z,14.23
2023-05-14T06:40:36.398Z,14.82
2023-05-14T06:43:48.684Z,15.43
2023-05-14T06:47:00.945Z,16.12
2023-05-14T06:50:15.445Z,16.39
2023-05-14T06:53:27.716Z,16.69
2023-05-14T06:56:40.282Z,17.09
2023-05-14T06:59:52.354Z,17.56
2023-05-14T07:03:05.289Z,18.01
2023-05-14T07:06:17.481Z,18.15
2023-05-14T07:09:29.561Z,18.03
2023-05-14T07:12:41.759Z,18.25
2023-05-14T07:15:55.981Z,18.45
2023-05-14T07:19:08.117Z,19.20
2023-05-14T07:22:20.237Z,19.11
2023-05-14T07:25:33.177Z,19.33
2023-05-14T07:28:45.356Z,19.41
2023-05-14T07:31:57.516Z,19.45
2023-05-14T07:35:12.023Z,19.67
2023-05-14T07:38:25.166Z,19.91
2023-05-14T07:41:37.137Z,20.17
2023-05-14T07:44:49.193Z,20.39
2023-05-14T07:48:01.513Z,20.90
2023-05-14T07:51:14.168Z,20.57
2023-05-14T07:54:26.526Z,20.62
2023-05-14T07:57:39.363Z,20.86
2023-05-14T08:00:51.405Z,21.05
2023-05-14T08:04:03.623Z,21.24
2023-05-14T08:07:16.361Z,21.38
2023-05-14T08:10:29.185Z,21.37
2023-05-14T08:13:41.775Z,21.52
2023-05-14T08:16:53.866Z,21.56
2023-05-14T08:20:06.870Z,21.83
2023-05-14T08:23:19.177Z,22.05
2023-05-14T08:26:31.593Z,21.94
2023-05-14T08:29:43.751Z,22.16
2023-05-14T08:32:55.763Z,21.63
2023-05-14T08:36:08.100Z,21.56
2023-05-14T08:39:20.131Z,21.32
2023-05-14T08:42:33.073Z,21.59
2023-05-14T08:45:47.457Z,21.81
2023-05-14T08:49:05.184Z,22.14
2023-05-14T08:52:18.639Z,22.59
2023-05-14T08:55:33.647Z,22.33
2023-05-14T08:58:46.042Z,22.65
2023-05-14T09:02:03.429Z,22.78
2023-05-14T09:05:17.065Z,23.22
2023-05-14T09:08:29.771Z,23.46
2023-05-14T09:11:46.613Z,23.79
2023-05-14T09:14:58.861Z,23.89
2023-05-14T09:18:13.167Z,23.88
2023-05-14T09:21:26.384Z,24.22
2023-05-14T09:24:39.059Z,23.58
2023-05-14T09:27:56.687Z,23.13
2023-05-14T09:31:10.018Z,23.19
2023-05-14T09:34:32.365Z,23.80
2023-05-14T09:37:47.922Z,24.26
2023-05-14T09:41:00.298Z,24.55
2023-05-14T09:44:12.866Z,23.54
2023-05-14T09:47:25.780Z,22.95
2023-05-14T09:50:38.583Z,23.44
2023-05-14T09:53:52.474Z,22.91
2023-05-14T09:57:04.611Z,22.89
2023-05-14T10:00:21.279Z,22.81
2023-05-14T10:03:36.383Z,23.32
2023-05-14T10:06:50.340Z,23.23
2023-05-14T10:10:08.036Z,23.16
2023-05-14T10:13:24.615Z,23.55
2023-05-14T10:16:38.226Z,23.98
2023-05-14T10:19:52.645Z,24.15
2023-05-14T10:23:07.718Z,22.84
2023-05-14T10:26:21.780Z,23.20
2023-05-14T10:29:42.554Z,22.71
2023-05-14T10:32:54.903Z,22.80
2023-05-14T10:36:10.246Z,22.70
2023-05-14T10:39:22.585Z,23.33
2023-05-14T10:42:41.071Z,23.79
2023-05-14T10:45:53.729Z,23.87
2023-05-14T10:49:06.265Z,23.48
2023-05-14T10:52:20.623Z,23.44
2023-05-14T10:55:34.863Z,23.77
2023-05-14T10:58:49.525Z,23.51
2023-05-14T11:02:03.265Z,23.11
2023-05-14T11:05:18.742Z,23.33
2023-05-14T11:08:33.557Z,23.81
2023-05-14T11:11:47.968Z,23.41
2023-05-14T11:15:00.467Z,23.15
2023-05-14T11:18:13.347Z,22.72
2023-05-14T11:21:27.336Z,23.06
2023-05-14T11:24:40.914Z,23.23
2023-05-14T11:27:59.251Z,23.00
2023-05-14T11:31:11.993Z,22.77
2023-05-14T11:34:24.989Z,22.57
2023-05-14T11:37:39.429Z,22.53
2023-05-14T11:40:59.505Z,22.79
2023-05-14T11:44:12.178Z,22.74
2023-05-14T11:47:28.032Z,22.82
2023-05-14T11:50:43.353Z,22.50
2023-05-14T11:53:55.544Z,22.64
2023-05-14T11:57:14.054Z,22.80
2023-05-14T12:00:27.334Z,22.68
2023-05-14T12:03:41.313Z,22.77
2023-05-14T12:06:53.878Z,22.91
2023-05-14T12:10:10.925Z,22.41
2023-05-14T12:13:24.759Z,21.96
2023-05-14T12:16:39.421Z,22.25
2023-05-14T12:19:54.084Z,22.41
2023-05-14T12:23:08.522Z,22.58
2023-05-14T12:26:21.495Z,22.64
2023-05-14T12:29:34.385Z,22.46
2023-05-14T12:32:46.614Z,22.28
2023-05-14T12:36:10.008Z,22.15
2023-05-14T12:39:16.613Z,22.14
2023-05-14T12:42:29.094Z,22.49
2023-05-14T12:45:41.243Z,22.07
2023-05-14T12:48:53.634Z,22.12
2023-05-14T12:52:22.689Z,22.09
2023-05-14T12:55:19.946Z,22.11
2023-05-14T12:58:32.229Z,22.07
2023-05-14T13:01:45.144Z,22.04
2023-05-14T13:04:57.284Z,21.97
2023-05-14T13:08:09.543Z,22.05
2023-05-14T13:11:21.975Z,22.15
2023-05-14T13:14:34.590Z,22.27
2023-05-14T13:17:47.026Z,22.03
2023-05-14T13:21:00.036Z,22.28
2023-05-14T13:24:13.008Z,22.02
2023-05-14T13:27:25.385Z,21.98
2023-05-14T13:30:37.709Z,22.15
2023-05-14T13:33:51.014Z,21.80
2023-05-14T13:37:04.171Z,21.79
2023-05-14T13:40:18.802Z,21.61
2023-05-14T13:43:31.201Z,21.58
2023-05-14T13:46:43.833Z,21.69
2023-05-14T13:49:56.661Z,21.69
2023-05-14T13:53:08.995Z,21.67
2023-05-14T13:56:21.691Z,21.48
2023-05-14T13:59:34.084Z,21.28
2023-05-14T14:02:46.146Z,21.15
2023-05-14T14:05:58.504Z,21.14
2023-05-14T14:09:10.913Z,21.04
2023-05-14T14:12:23.891Z,21.14
2023-05-14T14:15:36.161Z,21.05
2023-05-14T14:18:48.928Z,21.03
2023-05-14T14:22:01.154Z,20.92
2023-05-14T14:25:15.544Z,20.74
2023-05-14T14:28:27.852Z,20.73
2023-05-14T14:31:40.821Z,20.73
2023-05-14T14:34:53.188Z,20.68
2023-05-14T14:38:05.432Z,20.70
2023-05-14T14:41:17.953Z,20.70
2023-05-14T14:44:30.297Z,20.64
2023-05-14T14:47:42.592Z,20.56
2023-05-14T14:50:55.118Z,20.59
2023-05-14T14:54:07.492Z,20.53
2023-05-14T14:57:20.035Z,20.61
2023-05-14T15:00:32.262Z,20.55
2023-05-14T15:03:45.922Z,20.58
2023-05-14T15:06:57.898Z,20.56
2023-05-14T15:10:11.783Z,20.56
2023-05-14T15:13:24.871Z,20.48
2023-05-14T15:16:37.308Z,20.46
2023-05-14T15:19:49.463Z,20.42
2023-05-14T15:23:02.494Z,20.36
2023-05-14T15:26:14.849Z,20.32
2023-05-14T15:29:27.135Z,20.28
2023-05-14T15:32:39.980Z,20.24
2023-05-14T15:35:52.788Z,20.18
2023-05-14T15:39:05.195Z,20.11
2023-05-14T15:42:17.606Z,20.05
2023-05-14T15:45:30.271Z,19.97
2023-05-14T15:48:42.731Z,19.97
2023-05-14T15:51:55.087Z,19.97
2023-05-14T15:55:08.392Z,19.97
2023-05-14T15:58:20.630Z,19.92
2023-05-14T16:01:32.942Z,19.88
2023-05-14T16:04:45.690Z,19.88
2023-05-14T16:07:58.358Z,19.89
2023-05-14T16:11:11.191Z,19.85
2023-05-14T16:14:23.615Z,19.83
2023-05-14T16:17:36.054Z,19.66
2023-05-14T16:20:48.994Z,19.74
2023-05-14T16:24:01.548Z,19.69
2023-05-14T16:27:14.158Z,19.68
2023-05-14T16:30:26.755Z,19.63
2023-05-14T16:33:39.253Z,19.58
2023-05-14T16:36:51.809Z,19.54
2023-05-14T16:40:04.394Z,19.50
2023-05-14T16:43:17.007Z,19.48
2023-05-14T16:46:29.796Z,19.39
2023-05-14T16:49:42.408Z,19.32
2023-05-14T16:52:54.954Z,19.26
2023-05-14T16:56:07.512Z,19.18
2023-05-14T16:59:20.077Z,19.09
2023-05-14T17:02:32.322Z,19.07
2023-05-14T17:05:45.013Z,18.98
2023-05-14T17:08:57.729Z,19.03
2023-05-14T17:12:13.103Z,19.03
2023-05-14T17:15:25.831Z,19.02
2023-05-14T17:18:38.512Z,18.97
2023-05-14T17:21:50.932Z,18.81
2023-05-14T17:25:03.262Z,18.64
2023-05-14T17:28:15.634Z,18.61
2023-05-14T17:31:27.945Z,18.61
2023-05-14T17:34:40.479Z,18.60
2023-05-14T17:37:53.001Z,18.56
2023-05-14T17:41:05.722Z,18.49
2023-05-14T17:44:18.330Z,18.33
2023-05-14T17:47:30.666Z,18.17
2023-05-14T17:50:43.885Z,18.05
2023-05-14T17:53:56.607Z,17.94
2023-05-14T17:57:09.634Z,17.88
2023-05-14T18:00:23.770Z,17.88
2023-05-14T18:03:36.951Z,17.86
2023-05-14T18:06:50.528Z,17.85
2023-05-14T18:10:03.235Z,17.72
2023-05-14T18:13:15.970Z,17.67
2023-05-14T18:16:28.680Z,17.60
2023-05-14T18:19:41.197Z,17.39
2023-05-14T18:22:53.951Z,17.11
2023-05-14T18:26:07.245Z,16.95
2023-05-14T18:29:19.712Z,16.93
2023-05-14T18:32:32.316Z,16.90
2023-05-14T18:35:45.089Z,16.83
2023-05-14T18:38:57.501Z,16.70
2023-05-14T18:42:11.003Z,16.64
2023-05-14T18:45:24.423Z,16.62
2023-05-14T18:48:38.525Z,16.53
2023-05-14T18:51:50.843Z,16.43
2023-05-14T18:55:03.415Z,16.37
2023-05-14T18:58:15.897Z,16.22
2023-05-14T19:01:28.372Z,16.09
2023-05-14T19:04:51.218Z,16.12
2023-05-14T19:07:55.395Z,16.03
2023-05-14T19:11:07.698Z,16.02
2023-05-14T19:14:20.520Z,16.10
2023-05-14T19:17:33.457Z,16.11
2023-05-14T19:20:46.873Z,16.10
2023-05-14T19:23:59.303Z,16.10
2023-05-14T19:27:14.073Z,16.06
2023-05-14T19:30:28.034Z,16.05
2023-05-14T19:33:40.628Z,16.02
2023-05-14T19:36:52.878Z,15.96
2023-05-14T19:40:05.963Z,15.87
2023-05-14T19:43:18.328Z,15.87
2023-05-14T19:46:30.714Z,15.86
2023-05-14T19:49:43.081Z,15.68
2023-05-14T19:52:56.943Z,15.51
2023-05-14T19:56:09.644Z,15.55
2023-05-14T19:59:22.065Z,15.48
2023-05-14T20:02:34.770Z,15.57
2023-05-14T20:05:47.301Z,15.51
2023-05-14T20:08:59.729Z,15.44
2023-05-14T20:12:15.097Z,15.28
2023-05-14T20:15:27.749Z,15.11
2023-05-14T20:18:40.479Z,14.97
2023-05-14T20:21:53.040Z,14.87
2023-05-14T20:25:05.257Z,14.84
2023-05-14T20:28:17.474Z,14.60
2023-05-14T20:31:29.778Z,14.56
2023-05-14T20:34:42.302Z,14.52
2023-05-14T20:37:55.698Z,14.44
2023-05-14T20:41:08.177Z,14.36
2023-05-14T20:44:20.659Z,14.29
2023-05-14T20:47:34.480Z,14.22
2023-05-14T20:50:51.352Z,14.19
2023-05-14T20:54:03.623Z,14.17
2023-05-14T20:57:16.378Z,14.13
2023-05-14T21:00:29.660Z,14.09
2023-05-14T21:03:42.175Z,14.16
2023-05-14T21:06:54.645Z,14.21
2023-05-14T21:10:07.036Z,14.09
2023-05-14T21:13:19.355Z,14.05
2023-05-14T21:16:32.048Z,13.87
2023-05-14T21:19:44.483Z,13.97
2023-05-14T21:22:56.698Z,13.93
2023-05-14T21:26:09.208Z,14.01
2023-05-14T21:29:21.350Z,14.00
2023-05-14T21:32:33.461Z,14.02
2023-05-14T21:35:45.668Z,13.93
2023-05-14T21:38:58.601Z,13.94
2023-05-14T21:42:12.529Z,13.85
2023-05-14T21:45:25.439Z,13.92
2023-05-14T21:48:38.201Z,13.89
2023-05-14T21:51:52.886Z,13.82
2023-05-14T21:55:05.222Z,13.86
2023-05-14T21:58:17.754Z,13.91
2023-05-14T22:01:30.203Z,13.81
2023-05-14T22:04:42.394Z,13.87
2023-05-14T22:07:55.017Z,13.74
2023-05-14T22:11:07.636Z,13.77
2023-05-14T22:14:19.936Z,13.76
2023-05-14T22:17:34.349Z,13.70
2023-05-14T22:20:46.997Z,13.62
2023-05-14T22:23:59.445Z,13.62
2023-05-14T22:27:12.136Z,13.58
2023-05-14T22:30:24.436Z,13.57
2023-05-14T22:33:37.571Z,13.64
2023-05-14T22:36:49.771Z,13.63
2023-05-14T22:40:02.366Z,13.64
2023-05-14T22:43:14.511Z,13.56
2023-05-14T22:46:26.829Z,13.50
2023-05-14T22:49:39.309Z,13.49
2023-05-14T22:52:51.579Z,13.46
2023-05-14T22:56:03.743Z,13.33
2023-05-14T22:59:15.868Z,13.34
2023-05-14T23:02:27.937Z,13.29
2023-05-14T23:05:40.262Z,13.32
2023-05-14T23:08:52.482Z,13.29
2023-05-14T23:12:04.726Z,13.21
2023-05-14T23:15:18.121Z,13.18
2023-05-14T23:18:30.922Z,13.18
2023-05-14T23:21:43.333Z,13.10
2023-05-14T23:24:55.484Z,13.07
2023-05-14T23:28:07.694Z,13.12
2023-05-14T23:31:19.975Z,13.04
2023-05-14T23:34:32.201Z,13.02
2023-05-14T23:37:47.612Z,12.92
2023-05-14T23:40:59.602Z,12.91
2023-05-14T23:44:12.251Z,12.92
2023-05-14T23:47:24.536Z,12.94
2023-05-14T23:50:37.332Z,12.94
2023-05-14T23:53:49.337Z,12.83
2023-05-14T23:57:01.749Z,12.77
